Airport View

Enter AWOS ICAO identifier for current METAR.

ex. KFNL

KSJX 191815Z AUTO 36008KT 10SM SCT020 M05/M10 A3020 RMK AO2 T10471097

19 Jan 2020 18:31

Frequency: 118.075

Phone: 231-448-3081

Other Area AWOS: KCVX - KISQ - KMGN - KPLN

TAF KPLN 191744Z 1918/2018 02012KT P6SM FEW250 FM200400 VRB03KT P6SM SCT035 FM201500 VRB03KT P6SM BKN030 FM201700 30007KT P6SM BKN028